sensor_id;sensor_type;location;lat;lon;timestamp;P1;durP1;ratioP1;P2;durP2;ratioP2
59127;SDS011;44912;52.754;5.994;2022-12-15T00:01:45;26.15;;;16.08;;
59127;SDS011;44912;52.754;5.994;2022-12-15T00:04:30;26.00;;;16.30;;
59127;SDS011;44912;52.754;5.994;2022-12-15T00:07:14;25.52;;;15.05;;
59127;SDS011;44912;52.754;5.994;2022-12-15T00:09:58;26.27;;;16.45;;
59127;SDS011;44912;52.754;5.994;2022-12-15T00:12:42;27.42;;;15.32;;
59127;SDS011;44912;52.754;5.994;2022-12-15T00:15:26;29.05;;;16.25;;
59127;SDS011;44912;52.754;5.994;2022-12-15T00:18:10;26.27;;;15.38;;
59127;SDS011;44912;52.754;5.994;2022-12-15T00:20:58;25.38;;;14.98;;
59127;SDS011;44912;52.754;5.994;2022-12-15T00:23:42;29.95;;;15.93;;
59127;SDS011;44912;52.754;5.994;2022-12-15T00:26:26;28.98;;;15.90;;
59127;SDS011;44912;52.754;5.994;2022-12-15T00:29:10;25.65;;;15.63;;
59127;SDS011;44912;52.754;5.994;2022-12-15T00:31:55;26.42;;;15.65;;
59127;SDS011;44912;52.754;5.994;2022-12-15T00:34:39;27.42;;;15.98;;
59127;SDS011;44912;52.754;5.994;2022-12-15T00:37:23;26.15;;;15.32;;
59127;SDS011;44912;52.754;5.994;2022-12-15T00:40:07;28.80;;;15.57;;
59127;SDS011;44912;52.754;5.994;2022-12-15T00:42:34;30.50;;;16.23;;
59127;SDS011;44912;52.754;5.994;2022-12-15T00:44:59;27.75;;;15.73;;
59127;SDS011;44912;52.754;5.994;2022-12-15T00:47:25;23.85;;;15.60;;
59127;SDS011;44912;52.754;5.994;2022-12-15T00:49:51;26.83;;;17.40;;
59127;SDS011;44912;52.754;5.994;2022-12-15T00:52:35;26.42;;;16.00;;
59127;SDS011;44912;52.754;5.994;2022-12-15T00:55:19;31.85;;;16.70;;
59127;SDS011;44912;52.754;5.994;2022-12-15T00:58:03;24.67;;;16.67;;
59127;SDS011;44912;52.754;5.994;2022-12-15T01:03:32;29.90;;;16.33;;
59127;SDS011;44912;52.754;5.994;2022-12-15T01:06:17;27.65;;;16.38;;
59127;SDS011;44912;52.754;5.994;2022-12-15T01:09:03;25.63;;;16.13;;
59127;SDS011;44912;52.754;5.994;2022-12-15T01:11:49;27.30;;;17.42;;
59127;SDS011;44912;52.754;5.994;2022-12-15T01:14:34;29.50;;;18.00;;
59127;SDS011;44912;52.754;5.994;2022-12-15T01:20:03;28.33;;;16.87;;
59127;SDS011;44912;52.754;5.994;2022-12-15T01:22:43;28.35;;;17.98;;
59127;SDS011;44912;52.754;5.994;2022-12-15T01:25:10;27.40;;;16.25;;
59127;SDS011;44912;52.754;5.994;2022-12-15T01:27:36;26.75;;;17.30;;
59127;SDS011;44912;52.754;5.994;2022-12-15T01:30:02;29.65;;;18.10;;
59127;SDS011;44912;52.754;5.994;2022-12-15T01:32:29;28.42;;;16.70;;
59127;SDS011;44912;52.754;5.994;2022-12-15T01:34:54;28.60;;;17.27;;
59127;SDS011;44912;52.754;5.994;2022-12-15T01:37:20;24.67;;;15.80;;
59127;SDS011;44912;52.754;5.994;2022-12-15T01:39:46;27.98;;;15.32;;
59127;SDS011;44912;52.754;5.994;2022-12-15T01:42:30;24.73;;;15.30;;
59127;SDS011;44912;52.754;5.994;2022-12-15T01:47:52;23.73;;;14.32;;
59127;SDS011;44912;52.754;5.994;2022-12-15T01:50:21;23.08;;;14.57;;
59127;SDS011;44912;52.754;5.994;2022-12-15T01:52:49;24.95;;;15.02;;
59127;SDS011;44912;52.754;5.994;2022-12-15T01:55:17;23.27;;;15.05;;
59127;SDS011;44912;52.754;5.994;2022-12-15T01:57:43;25.65;;;15.45;;
59127;SDS011;44912;52.754;5.994;2022-12-15T02:00:11;23.27;;;14.98;;
59127;SDS011;44912;52.754;5.994;2022-12-15T02:02:38;26.67;;;14.55;;
59127;SDS011;44912;52.754;5.994;2022-12-15T02:05:04;21.85;;;13.88;;
59127;SDS011;44912;52.754;5.994;2022-12-15T02:07:30;23.90;;;14.20;;
59127;SDS011;44912;52.754;5.994;2022-12-15T02:09:57;24.92;;;15.02;;
59127;SDS011;44912;52.754;5.994;2022-12-15T02:15:48;23.08;;;14.52;;
59127;SDS011;44912;52.754;5.994;2022-12-15T02:21:21;23.55;;;14.00;;
59127;SDS011;44912;52.754;5.994;2022-12-15T02:32:36;25.30;;;14.65;;
59127;SDS011;44912;52.754;5.994;2022-12-15T02:35:21;26.05;;;14.85;;
59127;SDS011;44912;52.754;5.994;2022-12-15T02:37:51;23.58;;;13.95;;
59127;SDS011;44912;52.754;5.994;2022-12-15T02:40:17;27.90;;;14.93;;
59127;SDS011;44912;52.754;5.994;2022-12-15T02:42:44;25.33;;;14.60;;
59127;SDS011;44912;52.754;5.994;2022-12-15T02:45:14;22.65;;;14.73;;
59127;SDS011;44912;52.754;5.994;2022-12-15T02:47:45;24.38;;;14.07;;
59127;SDS011;44912;52.754;5.994;2022-12-15T03:01:40;24.13;;;15.07;;
59127;SDS011;44912;52.754;5.994;2022-12-15T03:04:13;25.60;;;15.77;;
59127;SDS011;44912;52.754;5.994;2022-12-15T03:06:39;24.38;;;15.80;;
59127;SDS011;44912;52.754;5.994;2022-12-15T03:09:05;26.85;;;15.30;;
59127;SDS011;44912;52.754;5.994;2022-12-15T03:11:31;25.25;;;16.73;;
59127;SDS011;44912;52.754;5.994;2022-12-15T03:13:56;25.52;;;16.17;;
59127;SDS011;44912;52.754;5.994;2022-12-15T03:16:22;28.00;;;15.77;;
59127;SDS011;44912;52.754;5.994;2022-12-15T03:18:47;24.58;;;14.80;;
59127;SDS011;44912;52.754;5.994;2022-12-15T03:21:13;24.70;;;16.10;;
59127;SDS011;44912;52.754;5.994;2022-12-15T03:23:38;25.02;;;14.80;;
59127;SDS011;44912;52.754;5.994;2022-12-15T03:26:04;26.05;;;14.55;;
59127;SDS011;44912;52.754;5.994;2022-12-15T03:28:31;25.38;;;15.93;;
59127;SDS011;44912;52.754;5.994;2022-12-15T03:30:57;30.55;;;17.00;;
59127;SDS011;44912;52.754;5.994;2022-12-15T03:33:22;26.00;;;16.63;;
59127;SDS011;44912;52.754;5.994;2022-12-15T03:35:48;26.95;;;16.85;;
59127;SDS011;44912;52.754;5.994;2022-12-15T03:38:14;27.92;;;16.77;;
59127;SDS011;44912;52.754;5.994;2022-12-15T03:40:40;24.75;;;15.40;;
59127;SDS011;44912;52.754;5.994;2022-12-15T03:43:06;26.50;;;15.90;;
59127;SDS011;44912;52.754;5.994;2022-12-15T03:45:31;27.42;;;16.45;;
59127;SDS011;44912;52.754;5.994;2022-12-15T03:47:57;24.20;;;14.73;;
59127;SDS011;44912;52.754;5.994;2022-12-15T03:50:24;26.50;;;15.13;;
59127;SDS011;44912;52.754;5.994;2022-12-15T03:52:58;23.45;;;14.73;;
59127;SDS011;44912;52.754;5.994;2022-12-15T03:55:24;26.20;;;16.85;;
59127;SDS011;44912;52.754;5.994;2022-12-15T03:57:50;25.58;;;15.30;;
59127;SDS011;44912;52.754;5.994;2022-12-15T04:00:16;26.67;;;16.10;;
59127;SDS011;44912;52.754;5.994;2022-12-15T04:02:44;24.65;;;15.70;;
59127;SDS011;44912;52.754;5.994;2022-12-15T04:05:18;25.80;;;15.07;;
59127;SDS011;44912;52.754;5.994;2022-12-15T04:07:43;27.60;;;14.82;;
59127;SDS011;44912;52.754;5.994;2022-12-15T04:10:09;27.65;;;16.33;;
59127;SDS011;44912;52.754;5.994;2022-12-15T04:12:36;24.50;;;15.65;;
59127;SDS011;44912;52.754;5.994;2022-12-15T04:15:03;25.48;;;14.43;;
59127;SDS011;44912;52.754;5.994;2022-12-15T04:17:30;27.85;;;14.93;;
59127;SDS011;44912;52.754;5.994;2022-12-15T04:19:56;23.90;;;14.48;;
59127;SDS011;44912;52.754;5.994;2022-12-15T04:22:34;23.85;;;13.90;;
59127;SDS011;44912;52.754;5.994;2022-12-15T04:25:00;26.23;;;15.40;;
59127;SDS011;44912;52.754;5.994;2022-12-15T04:27:44;25.75;;;13.88;;
59127;SDS011;44912;52.754;5.994;2022-12-15T04:30:29;21.65;;;12.98;;
59127;SDS011;44912;52.754;5.994;2022-12-15T04:33:14;25.05;;;14.73;;
59127;SDS011;44912;52.754;5.994;2022-12-15T04:35:58;26.33;;;14.27;;
59127;SDS011;44912;52.754;5.994;2022-12-15T04:38:43;24.77;;;14.65;;
59127;SDS011;44912;52.754;5.994;2022-12-15T04:41:28;27.15;;;15.68;;
59127;SDS011;44912;52.754;5.994;2022-12-15T04:44:15;20.30;;;13.75;;
59127;SDS011;44912;52.754;5.994;2022-12-15T04:46:59;26.75;;;14.30;;
59127;SDS011;44912;52.754;5.994;2022-12-15T04:49:43;27.55;;;15.18;;
59127;SDS011;44912;52.754;5.994;2022-12-15T04:52:27;24.55;;;15.13;;
59127;SDS011;44912;52.754;5.994;2022-12-15T04:55:12;23.88;;;15.60;;
59127;SDS011;44912;52.754;5.994;2022-12-15T04:57:56;23.80;;;14.57;;
59127;SDS011;44912;52.754;5.994;2022-12-15T05:00:40;25.83;;;15.68;;
59127;SDS011;44912;52.754;5.994;2022-12-15T05:03:24;26.48;;;15.57;;
59127;SDS011;44912;52.754;5.994;2022-12-15T05:06:08;23.00;;;15.18;;
59127;SDS011;44912;52.754;5.994;2022-12-15T05:08:52;22.90;;;15.00;;
59127;SDS011;44912;52.754;5.994;2022-12-15T05:11:36;23.73;;;14.05;;
59127;SDS011;44912;52.754;5.994;2022-12-15T05:14:20;22.48;;;14.65;;
59127;SDS011;44912;52.754;5.994;2022-12-15T05:17:04;22.98;;;14.95;;
59127;SDS011;44912;52.754;5.994;2022-12-15T05:19:48;27.23;;;15.50;;
59127;SDS011;44912;52.754;5.994;2022-12-15T05:22:33;25.35;;;15.52;;
59127;SDS011;44912;52.754;5.994;2022-12-15T05:25:17;24.75;;;15.00;;
59127;SDS011;44912;52.754;5.994;2022-12-15T05:30:48;25.98;;;14.52;;
59127;SDS011;44912;52.754;5.994;2022-12-15T05:33:32;23.75;;;14.40;;
59127;SDS011;44912;52.754;5.994;2022-12-15T05:35:57;24.10;;;14.25;;
59127;SDS011;44912;52.754;5.994;2022-12-15T05:38:23;22.70;;;14.25;;
59127;SDS011;44912;52.754;5.994;2022-12-15T05:40:48;23.63;;;14.23;;
59127;SDS011;44912;52.754;5.994;2022-12-15T05:43:14;20.35;;;12.80;;
59127;SDS011;44912;52.754;5.994;2022-12-15T05:45:39;23.95;;;12.98;;
59127;SDS011;44912;52.754;5.994;2022-12-15T05:48:05;19.58;;;12.10;;
59127;SDS011;44912;52.754;5.994;2022-12-15T05:50:30;22.02;;;12.85;;
59127;SDS011;44912;52.754;5.994;2022-12-15T05:52:56;20.55;;;12.52;;
59127;SDS011;44912;52.754;5.994;2022-12-15T05:55:23;24.95;;;11.82;;
59127;SDS011;44912;52.754;5.994;2022-12-15T05:57:49;20.30;;;11.82;;
59127;SDS011;44912;52.754;5.994;2022-12-15T06:00:19;16.45;;;11.00;;
59127;SDS011;44912;52.754;5.994;2022-12-15T06:02:45;20.52;;;11.45;;
59127;SDS011;44912;52.754;5.994;2022-12-15T06:05:10;22.02;;;11.88;;
59127;SDS011;44912;52.754;5.994;2022-12-15T06:07:36;20.77;;;11.43;;
59127;SDS011;44912;52.754;5.994;2022-12-15T06:10:02;21.30;;;12.18;;
59127;SDS011;44912;52.754;5.994;2022-12-15T06:12:28;21.75;;;12.68;;
59127;SDS011;44912;52.754;5.994;2022-12-15T06:14:54;21.23;;;12.15;;
59127;SDS011;44912;52.754;5.994;2022-12-15T06:17:19;20.92;;;12.95;;
59127;SDS011;44912;52.754;5.994;2022-12-15T06:19:45;23.20;;;13.63;;
59127;SDS011;44912;52.754;5.994;2022-12-15T06:22:10;22.77;;;13.50;;
59127;SDS011;44912;52.754;5.994;2022-12-15T06:24:36;21.92;;;13.45;;
59127;SDS011;44912;52.754;5.994;2022-12-15T06:27:02;22.77;;;13.77;;
59127;SDS011;44912;52.754;5.994;2022-12-15T06:29:28;22.02;;;13.30;;
59127;SDS011;44912;52.754;5.994;2022-12-15T06:31:54;22.08;;;13.65;;
59127;SDS011;44912;52.754;5.994;2022-12-15T06:34:19;24.77;;;12.60;;
59127;SDS011;44912;52.754;5.994;2022-12-15T06:36:45;22.15;;;13.15;;
59127;SDS011;44912;52.754;5.994;2022-12-15T06:39:12;21.50;;;12.35;;
59127;SDS011;44912;52.754;5.994;2022-12-15T06:41:39;18.95;;;11.30;;
59127;SDS011;44912;52.754;5.994;2022-12-15T06:44:05;20.15;;;11.85;;
59127;SDS011;44912;52.754;5.994;2022-12-15T06:46:31;20.48;;;12.02;;
59127;SDS011;44912;52.754;5.994;2022-12-15T06:48:58;20.23;;;11.48;;
59127;SDS011;44912;52.754;5.994;2022-12-15T06:51:25;20.45;;;12.23;;
59127;SDS011;44912;52.754;5.994;2022-12-15T06:53:51;19.80;;;11.80;;
59127;SDS011;44912;52.754;5.994;2022-12-15T06:58:51;17.83;;;11.00;;
59127;SDS011;44912;52.754;5.994;2022-12-15T07:01:17;18.02;;;11.00;;
59127;SDS011;44912;52.754;5.994;2022-12-15T07:03:44;20.58;;;11.20;;
59127;SDS011;44912;52.754;5.994;2022-12-15T07:06:12;19.33;;;11.05;;
59127;SDS011;44912;52.754;5.994;2022-12-15T07:08:39;22.13;;;10.73;;
59127;SDS011;44912;52.754;5.994;2022-12-15T07:11:06;20.70;;;11.50;;
59127;SDS011;44912;52.754;5.994;2022-12-15T07:13:32;19.50;;;10.90;;
59127;SDS011;44912;52.754;5.994;2022-12-15T07:15:59;17.35;;;11.13;;
59127;SDS011;44912;52.754;5.994;2022-12-15T07:18:26;19.23;;;10.73;;
59127;SDS011;44912;52.754;5.994;2022-12-15T07:20:52;19.30;;;10.55;;
59127;SDS011;44912;52.754;5.994;2022-12-15T07:23:17;18.92;;;12.13;;
59127;SDS011;44912;52.754;5.994;2022-12-15T07:25:43;20.42;;;11.40;;
59127;SDS011;44912;52.754;5.994;2022-12-15T07:28:08;22.23;;;11.73;;
59127;SDS011;44912;52.754;5.994;2022-12-15T07:30:35;17.65;;;12.05;;
59127;SDS011;44912;52.754;5.994;2022-12-15T07:33:01;18.33;;;11.18;;
59127;SDS011;44912;52.754;5.994;2022-12-15T07:35:27;18.65;;;12.15;;
59127;SDS011;44912;52.754;5.994;2022-12-15T07:37:53;20.42;;;12.13;;
59127;SDS011;44912;52.754;5.994;2022-12-15T07:40:19;23.75;;;12.77;;
59127;SDS011;44912;52.754;5.994;2022-12-15T07:42:44;17.55;;;11.93;;
59127;SDS011;44912;52.754;5.994;2022-12-15T07:45:10;19.73;;;13.20;;
59127;SDS011;44912;52.754;5.994;2022-12-15T07:47:36;21.65;;;13.57;;
59127;SDS011;44912;52.754;5.994;2022-12-15T07:50:02;21.65;;;13.05;;
59127;SDS011;44912;52.754;5.994;2022-12-15T07:52:28;21.52;;;13.07;;
59127;SDS011;44912;52.754;5.994;2022-12-15T07:54:55;23.95;;;13.70;;
59127;SDS011;44912;52.754;5.994;2022-12-15T07:57:20;18.33;;;12.70;;
59127;SDS011;44912;52.754;5.994;2022-12-15T07:59:46;20.10;;;12.25;;
59127;SDS011;44912;52.754;5.994;2022-12-15T08:02:12;22.90;;;12.88;;
59127;SDS011;44912;52.754;5.994;2022-12-15T08:04:38;19.38;;;13.07;;
59127;SDS011;44912;52.754;5.994;2022-12-15T08:07:04;21.30;;;13.40;;
59127;SDS011;44912;52.754;5.994;2022-12-15T08:09:30;19.77;;;13.13;;
59127;SDS011;44912;52.754;5.994;2022-12-15T08:11:56;24.10;;;13.27;;
59127;SDS011;44912;52.754;5.994;2022-12-15T08:14:22;19.90;;;12.15;;
59127;SDS011;44912;52.754;5.994;2022-12-15T08:16:47;18.77;;;12.50;;
59127;SDS011;44912;52.754;5.994;2022-12-15T08:19:13;19.23;;;12.45;;
59127;SDS011;44912;52.754;5.994;2022-12-15T08:21:41;20.25;;;12.95;;
59127;SDS011;44912;52.754;5.994;2022-12-15T08:24:08;20.38;;;12.60;;
59127;SDS011;44912;52.754;5.994;2022-12-15T08:26:34;20.80;;;12.38;;
59127;SDS011;44912;52.754;5.994;2022-12-15T08:29:05;20.80;;;12.80;;
59127;SDS011;44912;52.754;5.994;2022-12-15T08:31:32;19.13;;;12.90;;
59127;SDS011;44912;52.754;5.994;2022-12-15T08:33:59;20.90;;;12.90;;
59127;SDS011;44912;52.754;5.994;2022-12-15T08:36:25;23.00;;;12.90;;
59127;SDS011;44912;52.754;5.994;2022-12-15T08:38:51;25.30;;;13.30;;
59127;SDS011;44912;52.754;5.994;2022-12-15T08:41:20;19.65;;;13.32;;
59127;SDS011;44912;52.754;5.994;2022-12-15T08:43:47;20.45;;;12.25;;
59127;SDS011;44912;52.754;5.994;2022-12-15T08:46:14;21.73;;;13.25;;
59127;SDS011;44912;52.754;5.994;2022-12-15T08:48:41;23.73;;;14.07;;
59127;SDS011;44912;52.754;5.994;2022-12-15T08:51:07;23.17;;;14.65;;
59127;SDS011;44912;52.754;5.994;2022-12-15T08:53:33;24.48;;;13.85;;
59127;SDS011;44912;52.754;5.994;2022-12-15T08:56:03;23.15;;;13.38;;
59127;SDS011;44912;52.754;5.994;2022-12-15T08:58:30;21.15;;;13.75;;
59127;SDS011;44912;52.754;5.994;2022-12-15T09:01:03;19.95;;;12.60;;
59127;SDS011;44912;52.754;5.994;2022-12-15T09:03:30;21.70;;;13.15;;
59127;SDS011;44912;52.754;5.994;2022-12-15T09:06:04;20.23;;;12.50;;
59127;SDS011;44912;52.754;5.994;2022-12-15T09:08:32;20.75;;;13.43;;
59127;SDS011;44912;52.754;5.994;2022-12-15T09:10:58;21.88;;;12.68;;
59127;SDS011;44912;52.754;5.994;2022-12-15T09:13:24;18.83;;;11.15;;
59127;SDS011;44912;52.754;5.994;2022-12-15T09:16:00;19.92;;;11.38;;
59127;SDS011;44912;52.754;5.994;2022-12-15T09:18:47;17.92;;;11.40;;
59127;SDS011;44912;52.754;5.994;2022-12-15T09:21:14;17.80;;;10.60;;
59127;SDS011;44912;52.754;5.994;2022-12-15T09:23:40;18.02;;;11.50;;
59127;SDS011;44912;52.754;5.994;2022-12-15T09:26:07;18.88;;;11.02;;
59127;SDS011;44912;52.754;5.994;2022-12-15T09:28:34;16.08;;;10.88;;
59127;SDS011;44912;52.754;5.994;2022-12-15T09:31:05;18.60;;;11.82;;
59127;SDS011;44912;52.754;5.994;2022-12-15T09:33:33;19.63;;;12.20;;
59127;SDS011;44912;52.754;5.994;2022-12-15T09:36:00;18.05;;;12.07;;
59127;SDS011;44912;52.754;5.994;2022-12-15T09:38:26;20.02;;;11.57;;
59127;SDS011;44912;52.754;5.994;2022-12-15T09:40:52;18.08;;;12.27;;
59127;SDS011;44912;52.754;5.994;2022-12-15T09:43:18;20.42;;;12.10;;
59127;SDS011;44912;52.754;5.994;2022-12-15T09:45:58;21.52;;;11.95;;
59127;SDS011;44912;52.754;5.994;2022-12-15T09:51:00;18.08;;;11.85;;
59127;SDS011;44912;52.754;5.994;2022-12-15T09:53:29;18.73;;;11.90;;
59127;SDS011;44912;52.754;5.994;2022-12-15T09:56:12;18.85;;;11.25;;
59127;SDS011;44912;52.754;5.994;2022-12-15T10:04:36;18.20;;;11.85;;
59127;SDS011;44912;52.754;5.994;2022-12-15T10:07:21;22.02;;;11.57;;
59127;SDS011;44912;52.754;5.994;2022-12-15T10:09:47;18.50;;;10.60;;
59127;SDS011;44912;52.754;5.994;2022-12-15T10:14:51;15.90;;;10.95;;
59127;SDS011;44912;52.754;5.994;2022-12-15T10:17:40;17.80;;;10.82;;
59127;SDS011;44912;52.754;5.994;2022-12-15T10:22:48;19.45;;;11.73;;
59127;SDS011;44912;52.754;5.994;2022-12-15T10:30:32;18.20;;;11.68;;
59127;SDS011;44912;52.754;5.994;2022-12-15T10:35:45;18.52;;;11.38;;
59127;SDS011;44912;52.754;5.994;2022-12-15T10:38:25;19.42;;;11.48;;
59127;SDS011;44912;52.754;5.994;2022-12-15T10:40:59;25.42;;;15.77;;
59127;SDS011;44912;52.754;5.994;2022-12-15T10:43:28;18.92;;;10.80;;
59127;SDS011;44912;52.754;5.994;2022-12-15T10:46:18;20.42;;;11.00;;
59127;SDS011;44912;52.754;5.994;2022-12-15T10:48:47;18.73;;;11.18;;
59127;SDS011;44912;52.754;5.994;2022-12-15T10:51:15;17.23;;;10.57;;
59127;SDS011;44912;52.754;5.994;2022-12-15T10:53:43;15.60;;;10.23;;
59127;SDS011;44912;52.754;5.994;2022-12-15T10:56:24;18.73;;;10.23;;
59127;SDS011;44912;52.754;5.994;2022-12-15T10:58:52;15.60;;;10.18;;
59127;SDS011;44912;52.754;5.994;2022-12-15T11:01:29;18.58;;;11.48;;
59127;SDS011;44912;52.754;5.994;2022-12-15T11:03:56;17.73;;;10.70;;
59127;SDS011;44912;52.754;5.994;2022-12-15T11:08:50;18.98;;;11.43;;
59127;SDS011;44912;52.754;5.994;2022-12-15T11:11:34;19.08;;;12.02;;
59127;SDS011;44912;52.754;5.994;2022-12-15T11:14:28;16.13;;;10.82;;
59127;SDS011;44912;52.754;5.994;2022-12-15T11:17:13;18.05;;;11.05;;
59127;SDS011;44912;52.754;5.994;2022-12-15T11:22:15;20.17;;;11.35;;
59127;SDS011;44912;52.754;5.994;2022-12-15T11:24:56;17.25;;;10.45;;
59127;SDS011;44912;52.754;5.994;2022-12-15T11:27:50;18.10;;;11.02;;
59127;SDS011;44912;52.754;5.994;2022-12-15T11:30:21;19.70;;;10.15;;
59127;SDS011;44912;52.754;5.994;2022-12-15T11:32:53;17.00;;;11.15;;
59127;SDS011;44912;52.754;5.994;2022-12-15T11:35:24;20.63;;;11.95;;
59127;SDS011;44912;52.754;5.994;2022-12-15T11:38:18;17.10;;;11.15;;
59127;SDS011;44912;52.754;5.994;2022-12-15T11:40:51;17.48;;;10.68;;
59127;SDS011;44912;52.754;5.994;2022-12-15T11:46:17;20.23;;;10.38;;
59127;SDS011;44912;52.754;5.994;2022-12-15T11:52:09;20.70;;;10.27;;
59127;SDS011;44912;52.754;5.994;2022-12-15T11:54:52;20.95;;;9.95;;
59127;SDS011;44912;52.754;5.994;2022-12-15T12:00:11;17.65;;;10.25;;
59127;SDS011;44912;52.754;5.994;2022-12-15T12:02:55;16.80;;;10.82;;
59127;SDS011;44912;52.754;5.994;2022-12-15T12:06:11;19.70;;;10.77;;
59127;SDS011;44912;52.754;5.994;2022-12-15T12:09:15;19.17;;;10.98;;
59127;SDS011;44912;52.754;5.994;2022-12-15T12:11:53;19.90;;;11.25;;
59127;SDS011;44912;52.754;5.994;2022-12-15T12:14:41;19.30;;;11.75;;
59127;SDS011;44912;52.754;5.994;2022-12-15T12:19:53;21.52;;;13.30;;
59127;SDS011;44912;52.754;5.994;2022-12-15T12:22:25;23.17;;;14.85;;
59127;SDS011;44912;52.754;5.994;2022-12-15T12:25:03;23.50;;;13.85;;
59127;SDS011;44912;52.754;5.994;2022-12-15T12:30:28;22.92;;;14.38;;
59127;SDS011;44912;52.754;5.994;2022-12-15T12:33:16;23.05;;;13.35;;
59127;SDS011;44912;52.754;5.994;2022-12-15T12:36:06;25.10;;;12.85;;
59127;SDS011;44912;52.754;5.994;2022-12-15T12:38:37;22.77;;;12.98;;
59127;SDS011;44912;52.754;5.994;2022-12-15T12:44:03;19.90;;;12.65;;
59127;SDS011;44912;52.754;5.994;2022-12-15T12:46:46;19.75;;;12.13;;
59127;SDS011;44912;52.754;5.994;2022-12-15T12:49:19;19.80;;;12.07;;
59127;SDS011;44912;52.754;5.994;2022-12-15T12:52:02;21.63;;;12.23;;
59127;SDS011;44912;52.754;5.994;2022-12-15T12:56:58;24.10;;;12.70;;
59127;SDS011;44912;52.754;5.994;2022-12-15T13:01:54;21.48;;;13.45;;
59127;SDS011;44912;52.754;5.994;2022-12-15T13:04:41;19.70;;;12.85;;
59127;SDS011;44912;52.754;5.994;2022-12-15T13:12:52;21.58;;;12.93;;
59127;SDS011;44912;52.754;5.994;2022-12-15T13:15:36;22.55;;;12.90;;
59127;SDS011;44912;52.754;5.994;2022-12-15T13:20:43;23.23;;;14.90;;
59127;SDS011;44912;52.754;5.994;2022-12-15T13:23:33;25.13;;;14.25;;
59127;SDS011;44912;52.754;5.994;2022-12-15T13:44:31;26.50;;;17.17;;
59127;SDS011;44912;52.754;5.994;2022-12-15T13:47:04;23.23;;;15.10;;
59127;SDS011;44912;52.754;5.994;2022-12-15T13:52:31;18.30;;;12.98;;
59127;SDS011;44912;52.754;5.994;2022-12-15T13:55:19;20.40;;;12.77;;
59127;SDS011;44912;52.754;5.994;2022-12-15T13:57:58;18.42;;;12.90;;
59127;SDS011;44912;52.754;5.994;2022-12-15T14:00:27;23.30;;;13.10;;
59127;SDS011;44912;52.754;5.994;2022-12-15T14:03:04;22.73;;;14.13;;
59127;SDS011;44912;52.754;5.994;2022-12-15T14:05:30;21.98;;;13.40;;
59127;SDS011;44912;52.754;5.994;2022-12-15T14:07:57;20.33;;;13.70;;
59127;SDS011;44912;52.754;5.994;2022-12-15T14:10:41;21.10;;;13.40;;
59127;SDS011;44912;52.754;5.994;2022-12-15T14:13:28;22.38;;;14.05;;
59127;SDS011;44912;52.754;5.994;2022-12-15T14:18:31;22.77;;;14.60;;
59127;SDS011;44912;52.754;5.994;2022-12-15T14:20:58;23.98;;;15.95;;
59127;SDS011;44912;52.754;5.994;2022-12-15T14:23:26;24.85;;;14.73;;
59127;SDS011;44912;52.754;5.994;2022-12-15T14:26:04;22.08;;;15.02;;
59127;SDS011;44912;52.754;5.994;2022-12-15T14:28:32;23.92;;;14.73;;
59127;SDS011;44912;52.754;5.994;2022-12-15T14:31:03;22.15;;;14.88;;
59127;SDS011;44912;52.754;5.994;2022-12-15T14:33:59;24.25;;;14.68;;
59127;SDS011;44912;52.754;5.994;2022-12-15T14:36:29;20.92;;;13.50;;
59127;SDS011;44912;52.754;5.994;2022-12-15T14:38:57;24.90;;;14.13;;
59127;SDS011;44912;52.754;5.994;2022-12-15T14:41:32;22.75;;;13.82;;
59127;SDS011;44912;52.754;5.994;2022-12-15T14:44:02;20.63;;;14.55;;
59127;SDS011;44912;52.754;5.994;2022-12-15T14:46:30;21.73;;;14.80;;
59127;SDS011;44912;52.754;5.994;2022-12-15T14:48:59;23.92;;;14.65;;
59127;SDS011;44912;52.754;5.994;2022-12-15T14:51:29;22.48;;;14.73;;
59127;SDS011;44912;52.754;5.994;2022-12-15T14:54:03;21.10;;;14.38;;
59127;SDS011;44912;52.754;5.994;2022-12-15T14:56:29;23.55;;;13.95;;
59127;SDS011;44912;52.754;5.994;2022-12-15T15:01:34;22.27;;;13.77;;
59127;SDS011;44912;52.754;5.994;2022-12-15T15:04:20;25.13;;;13.73;;
59127;SDS011;44912;52.754;5.994;2022-12-15T15:07:04;21.42;;;12.98;;
59127;SDS011;44912;52.754;5.994;2022-12-15T15:09:40;21.25;;;14.30;;
59127;SDS011;44912;52.754;5.994;2022-12-15T15:12:12;23.90;;;13.77;;
59127;SDS011;44912;52.754;5.994;2022-12-15T15:14:48;22.20;;;14.05;;
59127;SDS011;44912;52.754;5.994;2022-12-15T15:17:29;19.00;;;13.90;;
59127;SDS011;44912;52.754;5.994;2022-12-15T15:20:01;22.38;;;14.15;;
59127;SDS011;44912;52.754;5.994;2022-12-15T15:22:42;21.98;;;14.55;;
59127;SDS011;44912;52.754;5.994;2022-12-15T15:25:26;20.52;;;14.10;;
59127;SDS011;44912;52.754;5.994;2022-12-15T15:28:00;20.80;;;13.55;;
59127;SDS011;44912;52.754;5.994;2022-12-15T15:30:28;20.02;;;14.15;;
59127;SDS011;44912;52.754;5.994;2022-12-15T15:32:55;22.83;;;14.10;;
59127;SDS011;44912;52.754;5.994;2022-12-15T15:35:28;23.05;;;14.98;;
59127;SDS011;44912;52.754;5.994;2022-12-15T15:38:42;19.77;;;13.65;;
59127;SDS011;44912;52.754;5.994;2022-12-15T15:41:07;19.75;;;13.57;;
59127;SDS011;44912;52.754;5.994;2022-12-15T15:44:09;21.00;;;14.68;;
59127;SDS011;44912;52.754;5.994;2022-12-15T15:46:44;24.17;;;15.13;;
59127;SDS011;44912;52.754;5.994;2022-12-15T15:49:13;22.45;;;14.88;;
59127;SDS011;44912;52.754;5.994;2022-12-15T15:51:41;23.15;;;15.95;;
59127;SDS011;44912;52.754;5.994;2022-12-15T15:54:10;23.08;;;15.15;;
59127;SDS011;44912;52.754;5.994;2022-12-15T15:56:41;21.83;;;15.30;;
59127;SDS011;44912;52.754;5.994;2022-12-15T15:59:10;22.90;;;15.25;;
59127;SDS011;44912;52.754;5.994;2022-12-15T16:01:37;24.42;;;15.30;;
59127;SDS011;44912;52.754;5.994;2022-12-15T16:04:02;24.38;;;15.95;;
59127;SDS011;44912;52.754;5.994;2022-12-15T16:06:30;24.85;;;16.35;;
59127;SDS011;44912;52.754;5.994;2022-12-15T16:08:55;23.10;;;16.05;;
59127;SDS011;44912;52.754;5.994;2022-12-15T16:11:21;25.45;;;16.20;;
59127;SDS011;44912;52.754;5.994;2022-12-15T16:13:49;24.40;;;16.17;;
59127;SDS011;44912;52.754;5.994;2022-12-15T16:16:18;23.77;;;16.83;;
59127;SDS011;44912;52.754;5.994;2022-12-15T16:18:45;22.63;;;16.65;;
59127;SDS011;44912;52.754;5.994;2022-12-15T16:21:14;23.85;;;16.52;;
59127;SDS011;44912;52.754;5.994;2022-12-15T16:23:44;25.13;;;16.23;;
59127;SDS011;44912;52.754;5.994;2022-12-15T16:26:15;25.85;;;17.98;;
59127;SDS011;44912;52.754;5.994;2022-12-15T16:28:43;23.17;;;17.17;;
59127;SDS011;44912;52.754;5.994;2022-12-15T16:31:15;22.85;;;15.77;;
59127;SDS011;44912;52.754;5.994;2022-12-15T16:33:52;23.77;;;16.15;;
59127;SDS011;44912;52.754;5.994;2022-12-15T16:36:18;24.83;;;17.70;;
59127;SDS011;44912;52.754;5.994;2022-12-15T16:38:43;26.92;;;17.42;;
59127;SDS011;44912;52.754;5.994;2022-12-15T16:41:10;27.90;;;19.88;;
59127;SDS011;44912;52.754;5.994;2022-12-15T16:43:38;25.88;;;17.67;;
59127;SDS011;44912;52.754;5.994;2022-12-15T16:46:04;25.77;;;19.25;;
59127;SDS011;44912;52.754;5.994;2022-12-15T16:48:30;25.30;;;18.65;;
59127;SDS011;44912;52.754;5.994;2022-12-15T16:50:56;28.92;;;19.42;;
59127;SDS011;44912;52.754;5.994;2022-12-15T16:53:27;31.50;;;19.55;;
59127;SDS011;44912;52.754;5.994;2022-12-15T16:55:56;30.08;;;20.13;;